Time;durP1;ratioP1;P1;durP2;ratioP2;P2;SDS_P1;SDS_P2;PMS_P1;PMS_P2;Temp;Humidity;BMP_temperature;BMP_pressure;BME280_temperature;BME280_humidity;BME280_pressure;Samples;Min_cycle;Max_cycle;Signal;HPM_P1;HPM_P2
2022/07/29 00:00:05;;;;;;;9.63;4.30;;;22.80;99.90;;;;;;5129003;29;20031;-74
2022/07/29 00:02:35;;;;;;;9.32;4.15;;;22.90;99.90;;;;;;5128907;29;20039;-75
2022/07/29 00:05:08;;;;;;;10.23;4.57;;;22.90;99.90;;;;;;5128932;29;20551;-74
2022/07/29 00:07:40;;;;;;;10.10;4.63;;;22.90;99.90;;;;;;5128814;29;20031;-74
2022/07/29 00:10:11;;;;;;;8.55;4.60;;;23.00;99.90;;;;;;5128735;29;20036;-74
2022/07/29 00:12:42;;;;;;;11.60;4.68;;;23.00;99.90;;;;;;5128738;29;20102;-75
2022/07/29 00:15:13;;;;;;;10.73;4.50;;;23.10;99.90;;;;;;5111524;29;20547;-74
2022/07/29 00:17:44;;;;;;;10.50;4.40;;;23.20;99.90;;;;;;5128710;29;20027;-74
2022/07/29 00:20:15;;;;;;;11.45;4.90;;;23.10;99.90;;;;;;5128555;29;20491;-74
2022/07/29 00:22:45;;;;;;;12.20;5.22;;;23.10;99.90;;;;;;5128372;29;20032;-74
2022/07/29 00:25:16;;;;;;;10.57;5.05;;;23.10;99.90;;;;;;5128389;29;20046;-75
2022/07/29 00:27:47;;;;;;;12.13;4.75;;;23.20;99.90;;;;;;5128702;29;20035;-74
2022/07/29 00:30:18;;;;;;;9.75;4.90;;;23.10;99.90;;;;;;5125781;29;20050;-75
2022/07/29 00:32:52;;;;;;;9.73;4.57;;;23.20;99.90;;;;;;5118477;29;20031;-75
2022/07/29 00:38:23;;;;;;;8.65;3.63;;;23.20;99.90;;;;;;5129268;29;20034;-75
2022/07/29 00:41:03;;;;;;;12.40;3.95;;;23.30;99.90;;;;;;5143848;28;20035;-75
2022/07/29 00:43:39;;;;;;;11.77;3.90;;;23.30;99.90;;;;;;5129279;29;20039;-75
2022/07/29 00:46:10;;;;;;;7.05;3.25;;;23.30;99.90;;;;;;5128101;29;20034;-74
2022/07/29 00:48:41;;;;;;;8.63;3.70;;;23.30;99.90;;;;;;5142876;28;20110;-74
2022/07/29 00:51:12;;;;;;;8.93;3.53;;;23.30;99.90;;;;;;5127980;29;20106;-75
2022/07/29 00:53:43;;;;;;;8.88;3.38;;;23.30;99.90;;;;;;5127788;29;20035;-74
2022/07/29 00:56:14;;;;;;;8.82;3.67;;;23.30;99.90;;;;;;5127894;29;20031;-74
2022/07/29 00:58:47;;;;;;;6.80;3.42;;;23.30;99.90;;;;;;5127801;29;20066;-75
2022/07/29 01:01:18;;;;;;;8.80;3.50;;;23.30;99.90;;;;;;5126485;29;20039;-74
2022/07/29 01:03:49;;;;;;;11.15;3.40;;;23.30;99.90;;;;;;5127690;29;20024;-74
2022/07/29 01:06:20;;;;;;;8.35;4.10;;;23.30;99.90;;;;;;5127719;29;20034;-74
2022/07/29 01:08:51;;;;;;;7.38;3.92;;;23.30;99.90;;;;;;5127728;29;20034;-75
2022/07/29 01:11:22;;;;;;;8.20;3.75;;;23.20;99.90;;;;;;5127777;29;20535;-75
2022/07/29 01:13:53;;;;;;;7.15;3.47;;;23.30;99.90;;;;;;5127627;29;20024;-75
2022/07/29 01:16:32;;;;;;;8.25;4.03;;;23.30;99.90;;;;;;5127559;29;20038;-74
2022/07/29 01:19:29;;;;;;;7.57;3.60;;;23.30;99.90;;;;;;5126422;29;20026;-74
2022/07/29 01:22:14;;;;;;;6.75;3.80;;;23.20;99.90;;;;;;5117245;29;20310;-75
2022/07/29 01:25:06;;;;;;;9.88;3.90;;;23.30;99.90;;;;;;5110064;29;20028;-75
2022/07/29 01:28:14;;;;;;;10.02;3.63;;;23.20;99.90;;;;;;5142249;28;20491;-75
2022/07/29 01:30:49;;;;;;;6.10;3.63;;;23.20;99.90;;;;;;5141985;28;20047;-74
2022/07/29 01:36:55;;;;;;;8.40;3.72;;;23.30;99.90;;;;;;5127301;29;20085;-74
2022/07/29 01:39:36;;;;;;;10.73;3.67;;;23.30;99.90;;;;;;5127290;29;20106;-75
2022/07/29 01:42:27;;;;;;;7.82;4.30;;;23.30;99.90;;;;;;5109923;29;20535;-74
2022/07/29 01:45:06;;;;;;;10.55;4.13;;;23.20;99.90;;;;;;5127221;29;20035;-74
2022/07/29 01:48:11;;;;;;;9.98;4.28;;;23.30;99.90;;;;;;5109888;29;20027;-75
2022/07/29 01:51:06;;;;;;;9.02;3.65;;;23.20;99.90;;;;;;5125365;29;20027;-74
2022/07/29 01:54:02;;;;;;;9.75;3.88;;;23.40;99.90;;;;;;5119476;29;20057;-75
2022/07/29 01:56:34;;;;;;;11.50;3.75;;;23.40;99.90;;;;;;5126822;29;20074;-74
2022/07/29 01:59:08;;;;;;;7.25;3.55;;;23.30;99.90;;;;;;5126623;29;20120;-74
2022/07/29 02:01:42;;;;;;;8.80;3.42;;;23.30;99.90;;;;;;5126032;29;20525;-74
2022/07/29 02:04:14;;;;;;;6.97;3.53;;;23.40;99.90;;;;;;5126081;28;20062;-74
2022/07/29 02:06:47;;;;;;;7.30;3.75;;;23.30;99.90;;;;;;5126678;29;20050;-74
2022/07/29 02:09:21;;;;;;;6.88;3.88;;;23.20;99.90;;;;;;5109498;29;20066;-74
2022/07/29 02:11:55;;;;;;;8.48;3.50;;;23.20;99.90;;;;;;5109303;29;20027;-74
2022/07/29 02:14:32;;;;;;;7.80;3.50;;;23.30;99.90;;;;;;5124219;29;20034;-76
2022/07/29 02:17:04;;;;;;;6.88;3.60;;;23.30;99.90;;;;;;5108361;29;20031;-74
2022/07/29 02:19:37;;;;;;;9.02;3.75;;;23.30;99.90;;;;;;5125702;29;20387;-74
2022/07/29 02:22:10;;;;;;;8.93;3.70;;;23.30;99.90;;;;;;5125830;29;20122;-74
2022/07/29 02:24:43;;;;;;;8.75;4.00;;;23.30;99.90;;;;;;5126312;29;20455;-74
2022/07/29 02:27:14;;;;;;;8.30;4.07;;;23.30;99.90;;;;;;5126262;29;20031;-74
2022/07/29 02:29:47;;;;;;;8.20;4.00;;;23.30;99.90;;;;;;5125957;29;20403;-74
2022/07/29 02:32:19;;;;;;;7.82;3.75;;;23.30;99.90;;;;;;5126142;29;20027;-73
2022/07/29 02:34:51;;;;;;;7.20;3.80;;;23.30;99.90;;;;;;5126057;29;20034;-74
2022/07/29 02:37:23;;;;;;;7.50;4.00;;;23.20;99.90;;;;;;5108848;29;20062;-74
2022/07/29 02:39:56;;;;;;;9.05;4.20;;;23.20;99.90;;;;;;5125940;29;20427;-74
2022/07/29 02:42:28;;;;;;;11.05;3.92;;;23.30;99.90;;;;;;5125862;29;20043;-74
2022/07/29 02:44:58;;;;;;;8.07;3.95;;;23.20;99.90;;;;;;5125980;29;20027;-74
2022/07/29 02:47:46;;;;;;;8.68;3.88;;;23.20;99.90;;;;;;5125874;29;20082;-74
2022/07/29 02:50:32;;;;;;;11.32;4.80;;;23.30;99.90;;;;;;5125812;29;20031;-74
2022/07/29 02:53:14;;;;;;;8.70;3.97;;;23.20;99.90;;;;;;5125880;29;20016;-74
2022/07/29 02:56:07;;;;;;;13.43;4.82;;;23.20;99.90;;;;;;5108399;29;20468;-74
2022/07/29 02:58:42;;;;;;;9.65;4.65;;;23.20;99.90;;;;;;5125609;29;20106;-74
2022/07/29 03:01:21;;;;;;;10.82;5.38;;;23.20;99.90;;;;;;5120377;29;20043;-74
2022/07/29 03:03:54;;;;;;;12.35;4.85;;;23.10;99.90;;;;;;5112455;29;20041;-74
2022/07/29 03:06:28;;;;;;;12.35;4.75;;;23.20;99.90;;;;;;5125647;29;20487;-73
2022/07/29 03:09:00;;;;;;;8.40;4.65;;;23.20;99.90;;;;;;5110688;29;20503;-74
2022/07/29 03:11:32;;;;;;;11.25;4.85;;;23.10;99.90;;;;;;5105462;29;20066;-74
2022/07/29 03:14:04;;;;;;;12.93;4.30;;;23.20;99.90;;;;;;5105705;29;20119;-74
2022/07/29 03:16:36;;;;;;;10.65;4.68;;;23.20;99.90;;;;;;5101290;29;20092;-73
2022/07/29 03:19:07;;;;;;;12.38;4.90;;;23.20;99.90;;;;;;5125473;29;20031;-74
2022/07/29 03:21:38;;;;;;;9.65;4.45;;;23.30;99.90;;;;;;5125325;29;20065;-74
2022/07/29 03:24:09;;;;;;;11.27;4.30;;;23.30;99.90;;;;;;5125452;29;20055;-74
2022/07/29 03:26:40;;;;;;;9.15;4.25;;;23.30;99.90;;;;;;5125456;29;20070;-74
2022/07/29 03:29:10;;;;;;;10.95;4.07;;;23.30;99.90;;;;;;5125186;29;20475;-74
2022/07/29 03:31:41;;;;;;;6.57;4.22;;;23.30;99.90;;;;;;5125623;29;20051;-74
2022/07/29 03:34:12;;;;;;;11.18;4.70;;;23.40;99.90;;;;;;5125370;29;20111;-74
2022/07/29 03:36:43;;;;;;;14.32;4.97;;;23.40;99.90;;;;;;5125415;29;20027;-73
2022/07/29 03:39:26;;;;;;;11.40;4.85;;;23.40;99.90;;;;;;5125369;29;20341;-74
2022/07/29 03:42:00;;;;;;;14.38;4.95;;;23.40;99.90;;;;;;5125218;29;20356;-74
2022/07/29 03:44:31;;;;;;;9.65;4.70;;;23.40;99.90;;;;;;5125248;29;20079;-74
2022/07/29 03:47:06;;;;;;;10.25;4.32;;;23.50;99.90;;;;;;5125051;29;20038;-74
2022/07/29 03:49:39;;;;;;;9.00;4.00;;;23.50;99.90;;;;;;5123891;29;20019;-74
2022/07/29 03:52:09;;;;;;;8.48;3.85;;;23.60;99.90;;;;;;5124914;29;20103;-74
2022/07/29 03:54:40;;;;;;;8.93;3.55;;;23.60;99.90;;;;;;5139958;28;20479;-74
2022/07/29 03:57:14;;;;;;;12.30;3.78;;;23.70;99.90;;;;;;5125088;29;20023;-74
2022/07/29 03:59:46;;;;;;;10.38;3.65;;;23.70;99.90;;;;;;5124927;29;20027;-74
2022/07/29 04:02:17;;;;;;;9.65;3.38;;;23.70;99.90;;;;;;5125111;29;20537;-74
2022/07/29 04:04:47;;;;;;;8.63;3.38;;;23.90;99.90;;;;;;5125003;29;20111;-74
2022/07/29 04:07:18;;;;;;;9.88;3.10;;;24.00;99.90;;;;;;5125012;29;20035;-74
2022/07/29 04:09:49;;;;;;;9.50;3.75;;;24.00;99.90;;;;;;5107903;29;20027;-74
2022/07/29 04:12:20;;;;;;;10.07;4.20;;;24.00;99.90;;;;;;5125023;29;20035;-74
2022/07/29 04:14:51;;;;;;;7.88;4.60;;;23.90;99.90;;;;;;5107723;29;20023;-74
2022/07/29 04:17:22;;;;;;;7.03;3.63;;;23.90;99.90;;;;;;5124936;29;20035;-74
2022/07/29 04:19:53;;;;;;;8.65;3.85;;;24.00;99.90;;;;;;5123654;29;20015;-73
2022/07/29 04:22:24;;;;;;;9.68;3.90;;;24.20;99.90;;;;;;5124659;29;20039;-74
2022/07/29 04:24:54;;;;;;;7.88;3.20;;;24.10;99.90;;;;;;5124784;29;20012;-73
2022/07/29 04:27:25;;;;;;;7.78;3.97;;;24.10;99.90;;;;;;5126576;28;20400;-74
2022/07/29 04:29:56;;;;;;;8.45;4.57;;;24.00;99.90;;;;;;5128410;29;20106;-75
2022/07/29 04:32:27;;;;;;;6.65;3.85;;;24.10;99.90;;;;;;5128398;29;20106;-74
2022/07/29 04:34:58;;;;;;;9.40;3.88;;;24.20;99.90;;;;;;5128327;29;20032;-74
2022/07/29 04:37:29;;;;;;;10.95;4.63;;;24.10;99.90;;;;;;5128411;29;20032;-74
2022/07/29 04:40:00;;;;;;;9.52;4.75;;;24.10;99.90;;;;;;5128167;29;20019;-74
2022/07/29 04:42:30;;;;;;;12.93;5.07;;;24.30;99.90;;;;;;5126910;29;20050;-74
2022/07/29 04:45:01;;;;;;;12.20;4.80;;;24.60;99.90;;;;;;5127004;29;20498;-74
2022/07/29 04:47:32;;;;;;;11.40;4.75;;;24.70;99.90;;;;;;5110989;29;20412;-74
2022/07/29 04:50:03;;;;;;;10.55;4.63;;;24.60;99.90;;;;;;5128073;29;20479;-74
2022/07/29 04:52:35;;;;;;;9.82;4.47;;;24.80;99.90;;;;;;5126807;29;20425;-74
2022/07/29 04:55:06;;;;;;;9.63;4.25;;;24.80;99.90;;;;;;5110812;29;20114;-73
2022/07/29 04:57:37;;;;;;;11.55;4.68;;;24.50;99.90;;;;;;5127902;29;20051;-74
2022/07/29 05:00:09;;;;;;;13.50;4.97;;;24.70;99.90;;;;;;5127990;29;20078;-75
2022/07/29 05:02:39;;;;;;;9.43;4.70;;;24.70;99.90;;;;;;5127842;29;20392;-74
2022/07/29 05:05:10;;;;;;;13.30;4.63;;;24.90;99.90;;;;;;5127583;29;20041;-74
2022/07/29 05:07:41;;;;;;;11.20;4.25;;;25.10;99.90;;;;;;5126470;29;20030;-74
2022/07/29 05:10:12;;;;;;;9.43;4.72;;;25.00;99.90;;;;;;5110429;29;20467;-74
2022/07/29 05:12:42;;;;;;;9.15;4.88;;;25.00;99.90;;;;;;5127668;29;20522;-74
2022/07/29 05:15:13;;;;;;;12.63;4.32;;;25.10;99.90;;;;;;5127765;29;20452;-75
2022/07/29 05:17:44;;;;;;;10.75;4.50;;;25.00;99.90;;;;;;5127630;29;20379;-74
2022/07/29 05:20:15;;;;;;;11.02;3.90;;;25.00;99.90;;;;;;5127493;29;20047;-75
2022/07/29 05:22:46;;;;;;;11.75;4.40;;;25.10;99.90;;;;;;5127436;29;20074;-74
2022/07/29 05:25:17;;;;;;;8.52;4.45;;;25.10;99.90;;;;;;5127499;29;20028;-74
2022/07/29 05:27:48;;;;;;;9.82;4.43;;;25.00;99.90;;;;;;5126058;29;20455;-74
2022/07/29 05:30:19;;;;;;;8.40;3.47;;;25.30;99.90;;;;;;5127199;29;20146;-74
2022/07/29 05:32:50;;;;;;;8.63;4.10;;;25.20;99.90;;;;;;5110062;29;20033;-74
2022/07/29 05:35:21;;;;;;;13.95;4.18;;;25.30;99.90;;;;;;5110125;29;20027;-74
2022/07/29 05:37:52;;;;;;;12.18;4.40;;;25.50;99.90;;;;;;5118312;29;20123;-74
2022/07/29 05:40:22;;;;;;;7.70;3.97;;;25.50;99.90;;;;;;5103775;29;20031;-74
2022/07/29 05:42:53;;;;;;;10.30;3.92;;;25.60;99.90;;;;;;5112614;29;20035;-75
2022/07/29 05:45:24;;;;;;;9.85;3.70;;;25.70;99.90;;;;;;5107151;29;20134;-74
2022/07/29 05:47:55;;;;;;;9.60;3.28;;;26.10;99.90;;;;;;5125556;29;20019;-74
2022/07/29 05:50:26;;;;;;;12.20;3.45;;;26.10;99.90;;;;;;5109699;29;20024;-74
2022/07/29 05:52:56;;;;;;;7.03;3.15;;;25.90;99.90;;;;;;5125706;29;20034;-75
2022/07/29 05:55:27;;;;;;;7.88;3.38;;;26.10;99.90;;;;;;5125789;29;20094;-75
2022/07/29 05:57:58;;;;;;;11.95;3.72;;;26.20;99.90;;;;;;5127476;29;20098;-74
2022/07/29 06:00:29;;;;;;;7.75;3.65;;;26.10;99.90;;;;;;5127544;29;20058;-75
2022/07/29 06:03:01;;;;;;;10.98;4.00;;;26.10;99.90;;;;;;5127486;29;20030;-74
2022/07/29 06:05:32;;;;;;;8.32;3.38;;;26.20;99.90;;;;;;5126092;29;20036;-75
2022/07/29 06:08:05;;;;;;;8.07;3.15;;;26.10;99.90;;;;;;5127379;29;20487;-75
2022/07/29 06:10:36;;;;;;;9.55;3.70;;;26.00;99.90;;;;;;5127444;29;20023;-75
2022/07/29 06:13:07;;;;;;;12.32;3.55;;;26.00;99.90;;;;;;5127366;29;20031;-75
2022/07/29 06:15:37;;;;;;;11.02;3.53;;;26.10;99.90;;;;;;5127283;29;20024;-75
2022/07/29 06:18:09;;;;;;;7.82;3.15;;;25.90;99.90;;;;;;5127425;29;20019;-75
2022/07/29 06:20:40;;;;;;;8.07;3.40;;;25.90;99.90;;;;;;5126006;29;20086;-74
2022/07/29 06:23:11;;;;;;;7.20;3.22;;;26.40;99.90;;;;;;5125891;29;20035;-74
2022/07/29 06:25:42;;;;;;;63.75;4.85;;;26.90;99.90;;;;;;5126853;29;20047;-75
2022/07/29 06:28:13;;;;;;;130.85;5.90;;;26.80;99.90;;;;;;5125711;29;20032;-74
2022/07/29 06:30:43;;;;;;;119.68;5.43;;;26.90;99.90;;;;;;5126772;29;20079;-74
2022/07/29 06:33:19;;;;;;;68.50;5.22;;;26.80;99.90;;;;;;5125878;29;20118;-74
2022/07/29 06:35:50;;;;;;;13.20;3.30;;;26.60;99.90;;;;;;5126959;29;20491;-74
2022/07/29 06:38:21;;;;;;;7.32;2.72;;;26.60;99.90;;;;;;5109816;29;20030;-74
2022/07/29 06:41:05;;;;;;;150.32;6.32;;;26.60;99.90;;;;;;5126843;29;20023;-75
2022/07/29 06:43:38;;;;;;;91.15;5.60;;;26.60;99.90;;;;;;5126770;29;20031;-75
2022/07/29 06:46:12;;;;;;;123.53;7.13;;;26.70;99.90;;;;;;5109506;29;20031;-74
2022/07/29 06:48:43;;;;;;;110.70;6.80;;;26.50;99.90;;;;;;5126642;29;20031;-75
2022/07/29 06:51:15;;;;;;;134.70;7.70;;;26.80;99.90;;;;;;5126532;28;20150;-75
2022/07/29 06:53:46;;;;;;;76.65;6.38;;;26.80;99.90;;;;;;5126659;29;20085;-75
2022/07/29 06:56:17;;;;;;;35.45;3.60;;;26.70;99.90;;;;;;5126616;29;20110;-74
2022/07/29 06:58:48;;;;;;;87.68;5.13;;;26.60;99.90;;;;;;5126529;29;20050;-74
2022/07/29 07:01:19;;;;;;;122.25;6.63;;;26.90;99.90;;;;;;5126444;29;20035;-75
2022/07/29 07:03:50;;;;;;;154.18;8.27;;;27.10;99.90;;;;;;5126218;29;20502;-75
2022/07/29 07:06:21;;;;;;;134.73;6.47;;;26.70;99.90;;;;;;5126102;29;20016;-74
2022/07/29 07:08:51;;;;;;;106.63;6.07;;;26.50;99.90;;;;;;5125936;29;20035;-74
2022/07/29 07:11:22;;;;;;;133.55;7.57;;;26.60;99.90;;;;;;5126074;29;20420;-74
2022/07/29 07:13:53;;;;;;;118.68;6.22;;;26.70;99.90;;;;;;5126086;29;20039;-74
2022/07/29 07:16:24;;;;;;;176.25;8.60;;;26.60;99.90;;;;;;5124585;29;20387;-74
2022/07/29 07:18:56;;;;;;;48.13;4.95;;;26.50;99.90;;;;;;5125772;29;20027;-74
2022/07/29 07:21:27;;;;;;;227.90;12.52;;;26.80;99.90;;;;;;5125640;29;20094;-74
2022/07/29 07:23:58;;;;;;;117.30;8.05;;;27.20;99.90;;;;;;5125644;29;20023;-74
2022/07/29 07:26:29;;;;;;;37.22;3.67;;;27.20;99.90;;;;;;5108347;29;20019;-74
2022/07/29 07:29:00;;;;;;;36.88;4.95;;;27.10;99.90;;;;;;5125260;29;20143;-74
2022/07/29 07:31:31;;;;;;;28.70;3.30;;;27.20;99.90;;;;;;5125866;29;20409;-74
2022/07/29 07:34:02;;;;;;;27.70;3.75;;;27.30;99.90;;;;;;5126048;29;20029;-74
2022/07/29 07:36:33;;;;;;;145.68;8.75;;;27.60;99.90;;;;;;5108435;29;20143;-75
2022/07/29 07:39:05;;;;;;;32.67;3.35;;;27.10;99.90;;;;;;5125657;29;20082;-74
2022/07/29 07:41:35;;;;;;;75.57;5.25;;;26.90;99.90;;;;;;5125439;29;20035;-74
2022/07/29 07:44:06;;;;;;;18.95;3.15;;;26.90;99.90;;;;;;5125553;29;20035;-74
2022/07/29 07:46:37;;;;;;;84.32;7.25;;;27.30;99.90;;;;;;5124231;29;20384;-74
2022/07/29 07:49:10;;;;;;;10.45;2.72;;;27.40;99.90;;;;;;5125461;29;20024;-74
2022/07/29 07:51:41;;;;;;;64.57;4.78;;;27.60;99.90;;;;;;5124029;29;20039;-74
2022/07/29 07:54:14;;;;;;;49.45;4.28;;;27.50;99.90;;;;;;5125463;29;20024;-74
2022/07/29 07:56:58;;;;;;;21.67;3.92;;;27.00;99.90;;;;;;5125555;29;20019;-73
2022/07/29 07:59:28;;;;;;;66.63;4.15;;;27.30;99.90;;;;;;5125418;29;20106;-73
2022/07/29 08:02:00;;;;;;;21.20;4.13;;;27.30;99.90;;;;;;5109360;29;20130;-74
2022/07/29 08:04:31;;;;;;;88.60;7.75;;;27.40;99.90;;;;;;5128292;29;20023;-75
2022/07/29 08:07:03;;;;;;;36.95;3.55;;;28.20;99.90;;;;;;5127817;29;20031;-73
2022/07/29 08:09:34;;;;;;;29.75;3.45;;;27.80;99.90;;;;;;5129296;29;20620;-74
2022/07/29 08:12:05;;;;;;;49.85;4.40;;;28.20;99.90;;;;;;5112135;29;20027;-74
2022/07/29 08:14:36;;;;;;;58.50;6.10;;;27.90;99.90;;;;;;5127933;29;20121;-74
2022/07/29 08:17:07;;;;;;;34.55;3.60;;;28.00;99.90;;;;;;5128037;29;20122;-73
2022/07/29 08:19:38;;;;;;;10.32;2.13;;;27.90;99.90;;;;;;5129357;29;20171;-74
2022/07/29 08:22:09;;;;;;;31.55;2.78;;;27.80;99.90;;;;;;5129161;29;20082;-74
2022/07/29 08:24:43;;;;;;;8.15;1.70;;;27.80;99.90;;;;;;5129128;29;20114;-73
2022/07/29 08:27:14;;;;;;;21.15;2.70;;;28.10;99.90;;;;;;5129187;29;20015;-73
2022/07/29 08:29:44;;;;;;;19.00;3.80;;;28.20;99.90;;;;;;5128821;29;20061;-74
2022/07/29 08:32:15;;;;;;;64.70;5.63;;;28.10;99.90;;;;;;5129105;29;20031;-74
2022/07/29 08:34:46;;;;;;;65.20;4.90;;;28.40;99.90;;;;;;5129075;29;20447;-74
2022/07/29 08:37:17;;;;;;;39.55;3.72;;;28.60;99.90;;;;;;5129048;29;20098;-74
2022/07/29 08:39:48;;;;;;;22.48;2.95;;;28.50;99.90;;;;;;5128941;29;20086;-74
2022/07/29 08:42:20;;;;;;;34.25;4.22;;;28.10;99.90;;;;;;5128872;29;20436;-74
2022/07/29 08:44:51;;;;;;;7.90;1.85;;;28.60;99.90;;;;;;5111751;29;20031;-74
2022/07/29 08:47:22;;;;;;;6.60;1.60;;;28.70;99.90;;;;;;5128854;29;20026;-74
2022/07/29 08:49:53;;;;;;;7.72;1.63;;;28.30;99.90;;;;;;5128734;29;20031;-73
2022/07/29 08:52:26;;;;;;;2.95;1.77;;;28.70;99.90;;;;;;5128729;29;20419;-73
2022/07/29 08:54:57;;;;;;;6.03;1.92;;;28.60;99.90;;;;;;5128564;29;20034;-74
2022/07/29 08:57:28;;;;;;;21.77;1.70;;;28.60;99.90;;;;;;5128566;29;20031;-74
2022/07/29 09:00:00;;;;;;;103.72;5.97;;;28.70;99.90;;;;;;5128504;29;20034;-74
2022/07/29 09:02:38;;;;;;;2.35;1.23;;;28.80;99.90;;;;;;5128490;29;20039;-73
2022/07/29 09:05:10;;;;;;;5.13;1.23;;;29.10;99.90;;;;;;5128542;29;20044;-74
2022/07/29 09:07:43;;;;;;;2.83;1.17;;;28.60;99.90;;;;;;5128478;29;20039;-73
2022/07/29 09:10:13;;;;;;;13.15;1.67;;;29.00;99.90;;;;;;5128378;29;20027;-73
2022/07/29 09:12:44;;;;;;;8.77;1.38;;;28.60;99.90;;;;;;5127763;28;20043;-74
2022/07/29 09:15:15;;;;;;;7.90;1.52;;;28.60;99.90;;;;;;5127700;29;20021;-73
2022/07/29 09:17:49;;;;;;;7.53;1.80;;;28.20;99.90;;;;;;5128271;29;20109;-73
2022/07/29 09:20:22;;;;;;;3.25;1.55;;;28.60;99.90;;;;;;5128151;29;20372;-74
2022/07/29 09:22:53;;;;;;;3.33;1.35;;;28.40;99.90;;;;;;5110603;29;20131;-73
2022/07/29 09:25:35;;;;;;;2.03;1.10;;;28.30;99.90;;;;;;5128077;29;20023;-73
2022/07/29 09:28:07;;;;;;;2.92;1.20;;;28.90;99.90;;;;;;5127795;29;20129;-74
2022/07/29 09:30:59;;;;;;;2.03;0.90;;;28.60;99.90;;;;;;5127737;29;20051;-74
2022/07/29 09:33:35;;;;;;;4.10;0.80;;;29.00;99.90;;;;;;5127750;29;20405;-74
2022/07/29 09:36:08;;;;;;;4.40;1.00;;;28.60;99.90;;;;;;5127942;29;20019;-73
2022/07/29 09:38:38;;;;;;;1.35;0.90;;;29.00;99.90;;;;;;5127899;29;20450;-73
2022/07/29 09:41:10;;;;;;;1.90;0.98;;;28.90;99.90;;;;;;5127740;29;20105;-74
2022/07/29 09:43:52;;;;;;;1.95;1.05;;;29.10;99.90;;;;;;5127701;29;20027;-73
2022/07/29 09:46:24;;;;;;;7.38;1.67;;;29.40;99.90;;;;;;5127753;29;20023;-73
2022/07/29 09:49:12;;;;;;;1.23;0.90;;;29.10;99.90;;;;;;5127807;29;20031;-73
2022/07/29 09:51:43;;;;;;;3.55;1.00;;;29.10;99.90;;;;;;5110634;29;20360;-73
2022/07/29 09:54:25;;;;;;;2.70;0.88;;;28.70;99.90;;;;;;5127480;29;20031;-74
2022/07/29 09:56:56;;;;;;;1.95;0.90;;;28.70;99.90;;;;;;5127577;29;20027;-74
2022/07/29 09:59:28;;;;;;;6.05;1.33;;;29.30;99.90;;;;;;5127387;29;20027;-74
2022/07/29 10:01:59;;;;;;;2.42;1.05;;;29.90;99.90;;;;;;5110035;29;20047;-73
2022/07/29 10:04:40;;;;;;;1.83;1.00;;;29.20;99.90;;;;;;5127184;29;20023;-74
2022/07/29 10:07:11;;;;;;;1.23;0.70;;;29.50;99.90;;;;;;5123949;29;20372;-74
2022/07/29 10:09:56;;;;;;;2.10;0.80;;;29.60;99.90;;;;;;5111109;29;20043;-74
2022/07/29 10:12:27;;;;;;;1.63;0.90;;;29.60;99.90;;;;;;5107515;29;20020;-74
2022/07/29 10:14:58;;;;;;;1.33;0.88;;;29.80;99.90;;;;;;5121929;29;20032;-74
2022/07/29 10:17:29;;;;;;;4.07;0.80;;;29.50;99.90;;;;;;5120554;29;20066;-74
2022/07/29 10:20:00;;;;;;;2.53;0.90;;;29.40;99.90;;;;;;5127231;29;20043;-73
2022/07/29 10:22:31;;;;;;;2.17;0.90;;;29.40;99.90;;;;;;5125909;29;20074;-74
2022/07/29 10:25:02;;;;;;;2.22;1.02;;;29.80;99.90;;;;;;5126843;28;20065;-74
2022/07/29 10:27:35;;;;;;;1.80;0.90;;;29.70;99.90;;;;;;5127092;29;20031;-73
2022/07/29 10:30:07;;;;;;;1.80;0.73;;;29.40;99.90;;;;;;5121682;29;20056;-73
2022/07/29 10:32:56;;;;;;;2.72;0.98;;;29.50;99.90;;;;;;5107233;29;20038;-73
2022/07/29 10:35:27;;;;;;;;;;;29.40;99.90;;;;;;5107792;29;20106;-74
2022/07/29 10:38:10;;;;;;;2.10;1.02;;;29.40;99.90;;;;;;5107245;29;20014;-73
2022/07/29 10:43:55;;;;;;;2.65;0.93;;;29.50;99.90;;;;;;5107328;29;20032;-74
2022/07/29 10:46:27;;;;;;;1.88;0.93;;;29.20;99.90;;;;;;5107023;29;20039;-74
2022/07/29 10:49:12;;;;;;;5.55;1.15;;;29.20;99.90;;;;;;5106992;29;20027;-74
2022/07/29 10:51:56;;;;;;;1.20;0.80;;;29.10;99.90;;;;;;5106970;29;20027;-73
2022/07/29 10:54:35;;;;;;;1.63;1.02;;;29.10;99.90;;;;;;5106763;29;20082;-74
2022/07/29 10:57:20;;;;;;;3.45;1.08;;;29.10;99.90;;;;;;5106962;29;20110;-74
2022/07/29 11:00:08;;;;;;;2.20;0.80;;;29.10;99.90;;;;;;5107397;29;20036;-73
2022/07/29 11:02:39;;;;;;;1.60;0.75;;;28.90;99.90;;;;;;5106702;29;20035;-73
2022/07/29 11:05:17;;;;;;;4.72;0.88;;;29.00;99.90;;;;;;5106744;29;20609;-73
2022/07/29 11:08:11;;;;;;;1.63;0.90;;;29.10;99.90;;;;;;5105572;29;20015;-74
2022/07/29 11:10:42;;;;;;;1.60;0.82;;;29.20;99.90;;;;;;5106683;29;20043;-74
2022/07/29 11:13:33;;;;;;;2.25;0.70;;;29.10;99.90;;;;;;5106209;29;20024;-74
2022/07/29 11:16:06;;;;;;;1.58;1.10;;;29.20;99.90;;;;;;5105601;29;20066;-74
2022/07/29 11:19:12;;;;;;;3.67;0.73;;;29.60;99.90;;;;;;5105583;29;20111;-73
2022/07/29 11:21:49;;;;;;;3.08;0.80;;;29.00;99.90;;;;;;5105590;29;20031;-73
2022/07/29 11:24:27;;;;;;;2.58;0.90;;;29.10;99.90;;;;;;5105962;29;20383;-73
2022/07/29 11:27:13;;;;;;;1.30;0.90;;;29.00;99.90;;;;;;5104997;29;20031;-73
2022/07/29 11:29:55;;;;;;;2.15;0.80;;;29.20;99.90;;;;;;5117078;29;20055;-73
2022/07/29 11:32:37;;;;;;;1.23;0.77;;;29.10;99.90;;;;;;5124302;29;20114;-73
2022/07/29 11:35:17;;;;;;;3.47;0.80;;;29.10;99.90;;;;;;5125819;29;20039;-74
2022/07/29 11:38:22;;;;;;;1.77;1.20;;;29.10;99.90;;;;;;5124552;29;20019;-73
2022/07/29 11:41:22;;;;;;;1.92;1.10;;;29.40;99.90;;;;;;5118391;29;20087;-74
2022/07/29 11:43:55;;;;;;;1.75;0.98;;;29.30;99.90;;;;;;5108193;29;20039;-74
2022/07/29 11:46:50;;;;;;;2.28;0.90;;;29.40;99.90;;;;;;5125666;29;20022;-74
2022/07/29 11:49:23;;;;;;;2.63;1.00;;;28.90;99.90;;;;;;5125845;29;20027;-73
2022/07/29 11:51:57;;;;;;;6.70;1.17;;;28.80;99.90;;;;;;5125339;29;20155;-73
2022/07/29 11:54:39;;;;;;;2.05;1.00;;;29.40;99.90;;;;;;5125259;29;20012;-74
2022/07/29 11:57:10;;;;;;;1.70;0.98;;;29.20;99.90;;;;;;5125792;29;20423;-73
2022/07/29 11:59:44;;;;;;;2.45;0.75;;;28.50;99.90;;;;;;5125577;29;20015;-74
2022/07/29 12:02:15;;;;;;;4.18;1.20;;;28.60;99.90;;;;;;5120102;29;21265;-73
2022/07/29 12:04:50;;;;;;;2.30;1.20;;;28.40;99.90;;;;;;5119504;29;20031;-73
2022/07/29 12:07:28;;;;;;;2.65;1.00;;;28.30;99.90;;;;;;5108266;29;20487;-74
2022/07/29 12:10:00;;;;;;;1.90;0.93;;;28.40;99.90;;;;;;5124798;29;20106;-74
2022/07/29 12:12:31;;;;;;;1.80;0.90;;;28.80;99.90;;;;;;5125299;29;20039;-73
2022/07/29 12:15:17;;;;;;;2.28;1.15;;;29.20;99.90;;;;;;5125354;29;20356;-74
2022/07/29 12:17:48;;;;;;;2.28;1.20;;;28.40;99.90;;;;;;5113981;29;20035;-75
2022/07/29 12:20:27;;;;;;;2.13;0.95;;;28.90;99.90;;;;;;5125506;29;20034;-74
2022/07/29 12:23:04;;;;;;;3.45;1.00;;;28.70;99.90;;;;;;5125365;29;20036;-73
2022/07/29 12:25:36;;;;;;;1.38;1.00;;;28.80;99.90;;;;;;5139986;28;20380;-73
2022/07/29 12:28:15;;;;;;;2.00;0.93;;;28.20;99.90;;;;;;5125341;29;20102;-73
2022/07/29 12:30:48;;;;;;;2.35;1.08;;;28.50;99.90;;;;;;5108159;29;20059;-74
2022/07/29 12:33:22;;;;;;;3.17;1.00;;;28.60;99.90;;;;;;5125160;29;20027;-74
2022/07/29 12:35:56;;;;;;;1.65;1.10;;;28.80;99.90;;;;;;5125463;29;20106;-75
2022/07/29 12:38:28;;;;;;;2.63;1.10;;;28.60;99.90;;;;;;5125474;29;20452;-73
2022/07/29 12:40:59;;;;;;;5.60;1.10;;;29.10;99.90;;;;;;5125034;29;20032;-74
2022/07/29 12:43:30;;;;;;;4.20;1.00;;;28.80;99.90;;;;;;5125382;29;20369;-74
2022/07/29 12:46:13;;;;;;;1.92;1.15;;;29.10;99.90;;;;;;5125577;29;20031;-74
2022/07/29 12:48:44;;;;;;;3.03;1.35;;;28.90;99.90;;;;;;5127626;28;20023;-73
2022/07/29 12:51:16;;;;;;;1.30;0.70;;;28.70;99.90;;;;;;5107781;29;20028;-73
2022/07/29 12:54:10;;;;;;;11.23;1.60;;;28.70;99.90;;;;;;5092026;29;20028;-73
2022/07/29 12:56:43;;;;;;;2.00;0.90;;;29.00;99.90;;;;;;5109121;29;20024;-74
2022/07/29 12:59:19;;;;;;;1.77;1.08;;;29.90;99.90;;;;;;5109055;29;20036;-74
2022/07/29 13:01:51;;;;;;;1.20;0.90;;;29.20;99.90;;;;;;5108982;29;20115;-73
2022/07/29 13:04:31;;;;;;;2.03;1.00;;;29.50;99.90;;;;;;5108987;29;20744;-74
2022/07/29 13:07:08;;;;;;;3.20;1.13;;;29.20;99.90;;;;;;5109001;29;20038;-74
2022/07/29 13:09:42;;;;;;;2.70;1.10;;;28.80;99.90;;;;;;5108816;29;20024;-73
2022/07/29 13:12:14;;;;;;;2.03;0.90;;;29.30;99.90;;;;;;5091725;29;20346;-74
2022/07/29 13:14:47;;;;;;;3.35;1.10;;;29.10;99.90;;;;;;5108682;29;20333;-73
2022/07/29 13:17:27;;;;;;;8.43;1.30;;;29.10;99.90;;;;;;5108563;29;20028;-74
2022/07/29 13:20:16;;;;;;;2.20;1.30;;;29.50;99.90;;;;;;5108145;29;20024;-74
2022/07/29 13:22:50;;;;;;;1.33;0.95;;;29.40;99.90;;;;;;5108390;29;20038;-74
2022/07/29 13:25:32;;;;;;;1.77;0.88;;;29.50;99.90;;;;;;5108402;29;20083;-73
2022/07/29 13:28:03;;;;;;;3.25;1.00;;;29.70;99.90;;;;;;5108399;29;20067;-74